createdAt,value
2019-05-20T00:01:56.872Z,13.57
2019-05-20T00:04:30.034Z,13.63
2019-05-20T00:07:03.971Z,13.65
2019-05-20T00:09:37.993Z,13.68
2019-05-20T00:12:11.225Z,13.71
2019-05-20T00:14:45.446Z,13.73
2019-05-20T00:17:19.432Z,13.74
2019-05-20T00:19:53.503Z,13.76
2019-05-20T00:22:27.021Z,13.79
2019-05-20T00:25:01.012Z,13.82
2019-05-20T00:27:35.125Z,13.81
2019-05-20T00:30:08.389Z,13.82
2019-05-20T00:32:42.682Z,13.82
2019-05-20T00:35:16.761Z,13.84
2019-05-20T00:37:50.949Z,13.69
2019-05-20T00:40:24.999Z,13.69
2019-05-20T00:42:59.036Z,13.87
2019-05-20T00:45:32.252Z,13.79
2019-05-20T00:48:06.454Z,13.76
2019-05-20T00:50:40.515Z,13.76
2019-05-20T00:53:13.734Z,13.77
2019-05-20T00:55:48.135Z,13.79
2019-05-20T00:58:22.244Z,13.77
2019-05-20T01:00:55.721Z,13.76
2019-05-20T01:03:29.880Z,13.75
2019-05-20T01:06:03.876Z,13.73
2019-05-20T01:08:37.943Z,13.71
2019-05-20T01:11:11.282Z,13.69
2019-05-20T01:13:45.387Z,13.67
2019-05-20T01:16:18.777Z,13.63
2019-05-20T01:18:52.759Z,13.64
2019-05-20T01:21:25.767Z,13.63
2019-05-20T01:23:59.680Z,13.63
2019-05-20T01:26:34.053Z,13.63
2019-05-20T01:29:08.125Z,13.65
2019-05-20T01:31:41.528Z,13.65
2019-05-20T01:34:17.017Z,13.64
2019-05-20T01:36:50.354Z,13.63
2019-05-20T01:39:24.407Z,13.64
2019-05-20T01:41:57.658Z,13.61
2019-05-20T01:44:31.481Z,13.60
2019-05-20T01:47:05.576Z,13.55
2019-05-20T01:49:39.595Z,13.50
2019-05-20T01:52:12.967Z,13.44
2019-05-20T01:54:46.931Z,13.47
2019-05-20T01:57:20.290Z,13.45
2019-05-20T01:59:54.455Z,13.45
2019-05-20T02:02:28.605Z,13.41
2019-05-20T02:05:01.828Z,13.39
2019-05-20T02:07:35.909Z,13.37
2019-05-20T02:10:10.287Z,13.35
2019-05-20T02:12:44.496Z,13.33
2019-05-20T02:15:28.709Z,13.32
2019-05-20T02:18:03.068Z,13.30
2019-05-20T02:20:37.017Z,13.29
2019-05-20T02:23:15.578Z,13.29
2019-05-20T02:25:50.900Z,13.27
2019-05-20T02:28:24.728Z,13.26
2019-05-20T02:30:58.565Z,13.24
2019-05-20T02:33:49.939Z,13.24
2019-05-20T02:36:08.163Z,13.22
2019-05-20T02:38:42.092Z,13.23
2019-05-20T02:41:15.965Z,13.21
2019-05-20T02:43:49.893Z,13.20
2019-05-20T02:46:23.781Z,13.17
2019-05-20T02:48:57.759Z,13.15
2019-05-20T02:51:31.786Z,13.15
2019-05-20T02:54:04.937Z,13.15
2019-05-20T02:56:38.856Z,13.15
2019-05-20T02:59:12.930Z,13.11
2019-05-20T03:01:45.946Z,13.00
2019-05-20T03:04:19.852Z,12.96
2019-05-20T03:06:53.868Z,12.91
2019-05-20T03:09:27.966Z,12.87
2019-05-20T03:12:01.295Z,12.91
2019-05-20T03:14:35.517Z,12.98
2019-05-20T03:17:09.613Z,13.01
2019-05-20T03:19:42.951Z,13.06
2019-05-20T03:22:17.012Z,13.11
2019-05-20T03:24:50.069Z,13.13
2019-05-20T03:27:24.154Z,13.18
2019-05-20T03:29:57.608Z,13.20
2019-05-20T03:32:31.645Z,13.26
2019-05-20T03:35:06.708Z,13.29
2019-05-20T03:37:40.805Z,13.34
2019-05-20T03:40:14.133Z,13.37
2019-05-20T03:42:48.287Z,13.42
2019-05-20T03:45:21.516Z,13.46
2019-05-20T03:47:55.502Z,13.52
2019-05-20T03:50:28.807Z,13.58
2019-05-20T03:53:02.800Z,13.64
2019-05-20T03:55:36.084Z,13.69
2019-05-20T03:58:13.270Z,13.76
2019-05-20T04:00:48.220Z,13.81
2019-05-20T04:03:22.377Z,13.92
2019-05-20T04:05:56.345Z,14.02
2019-05-20T04:08:30.513Z,14.09
2019-05-20T04:11:04.873Z,14.14
2019-05-20T04:13:38.949Z,14.20
2019-05-20T04:16:12.088Z,14.29
2019-05-20T04:18:46.162Z,14.34
2019-05-20T04:21:19.413Z,14.38
2019-05-20T04:23:53.296Z,14.44
2019-05-20T04:26:27.203Z,14.51
2019-05-20T04:29:01.226Z,14.62
2019-05-20T04:31:34.274Z,14.76
2019-05-20T04:34:08.201Z,14.89
2019-05-20T04:36:42.000Z,14.99
2019-05-20T04:39:16.014Z,15.09
2019-05-20T04:41:49.041Z,15.17
2019-05-20T04:44:22.891Z,15.24
2019-05-20T04:46:58.012Z,15.33
2019-05-20T04:49:32.151Z,15.42
2019-05-20T04:52:06.130Z,15.53
2019-05-20T04:54:40.069Z,15.62
2019-05-20T04:57:13.923Z,15.70
2019-05-20T04:59:47.926Z,15.83
2019-05-20T05:02:20.968Z,15.99
2019-05-20T05:04:54.907Z,16.21
2019-05-20T05:07:28.713Z,16.42
2019-05-20T05:10:02.683Z,16.65
2019-05-20T05:12:35.897Z,16.88
2019-05-20T05:15:10.500Z,17.05
2019-05-20T05:17:44.538Z,17.15
2019-05-20T05:20:18.724Z,17.32
2019-05-20T05:22:52.918Z,17.48
2019-05-20T05:25:27.129Z,17.61
2019-05-20T05:28:01.063Z,17.80
2019-05-20T05:30:34.784Z,17.98
2019-05-20T05:33:08.955Z,18.14
2019-05-20T05:35:52.978Z,18.28
2019-05-20T05:38:18.623Z,18.43
2019-05-20T05:40:51.746Z,18.59
2019-05-20T05:43:25.583Z,18.69
2019-05-20T05:45:59.516Z,18.65
2019-05-20T05:48:32.993Z,18.74
2019-05-20T05:51:06.922Z,18.84
2019-05-20T05:53:41.012Z,18.84
2019-05-20T05:56:14.927Z,18.88
2019-05-20T05:58:48.179Z,19.00
2019-05-20T06:01:22.547Z,19.08
2019-05-20T06:03:56.423Z,19.23
2019-05-20T06:06:29.629Z,19.48
2019-05-20T06:09:05.194Z,19.56
2019-05-20T06:11:39.140Z,19.61
2019-05-20T06:14:12.317Z,19.83
2019-05-20T06:16:46.257Z,20.13
2019-05-20T06:19:20.156Z,20.33
2019-05-20T06:21:53.352Z,20.60
2019-05-20T06:24:27.326Z,20.71
2019-05-20T06:27:01.276Z,20.83
2019-05-20T06:29:35.189Z,21.06
2019-05-20T06:32:09.105Z,21.38
2019-05-20T06:34:43.191Z,21.54
2019-05-20T06:37:25.027Z,21.58
2019-05-20T06:39:59.055Z,21.72
2019-05-20T06:42:32.950Z,21.91
2019-05-20T06:45:08.448Z,22.27
2019-05-20T06:47:42.280Z,22.53
2019-05-20T06:50:15.456Z,22.85
2019-05-20T06:52:49.242Z,23.03
2019-05-20T06:55:23.113Z,23.12
2019-05-20T06:57:56.990Z,23.23
2019-05-20T07:00:36.906Z,23.40
2019-05-20T07:03:10.827Z,23.56
2019-05-20T07:05:44.746Z,23.93
2019-05-20T07:08:18.725Z,24.22
2019-05-20T07:10:52.739Z,24.12
2019-05-20T07:13:26.856Z,23.94
2019-05-20T07:16:00.727Z,23.97
2019-05-20T07:18:34.720Z,24.16
2019-05-20T07:21:08.653Z,24.23
2019-05-20T07:23:42.566Z,24.38
2019-05-20T07:26:16.710Z,24.60
2019-05-20T07:28:50.770Z,24.86
2019-05-20T07:31:24.822Z,25.10
2019-05-20T07:33:59.127Z,25.44
2019-05-20T07:36:32.961Z,25.56
2019-05-20T07:39:07.885Z,25.63
2019-05-20T07:41:42.077Z,25.66
2019-05-20T07:44:16.033Z,25.89
2019-05-20T07:46:50.409Z,26.13
2019-05-20T07:49:24.876Z,26.37
2019-05-20T07:51:59.246Z,26.65
2019-05-20T07:54:33.546Z,26.82
2019-05-20T07:57:09.975Z,26.98
2019-05-20T07:59:45.915Z,27.19
2019-05-20T08:02:20.212Z,27.35
2019-05-20T08:04:54.173Z,27.42
2019-05-20T08:07:49.949Z,27.56
2019-05-20T08:10:04.320Z,27.74
2019-05-20T08:12:38.370Z,27.96
2019-05-20T08:15:12.470Z,28.08
2019-05-20T08:17:46.694Z,28.32
2019-05-20T08:20:20.839Z,28.47
2019-05-20T08:22:54.800Z,28.39
2019-05-20T08:25:28.771Z,28.53
2019-05-20T08:28:02.635Z,28.77
2019-05-20T08:30:38.335Z,28.94
2019-05-20T08:33:12.183Z,29.12
2019-05-20T08:35:46.146Z,29.04
2019-05-20T08:38:20.092Z,29.07
2019-05-20T08:40:53.936Z,29.22
2019-05-20T08:43:27.942Z,29.44
2019-05-20T08:46:01.950Z,29.63
2019-05-20T08:48:35.779Z,29.91
2019-05-20T08:51:09.785Z,30.01
2019-05-20T08:53:43.632Z,30.22
2019-05-20T08:56:17.616Z,30.36
2019-05-20T08:58:51.555Z,30.39
2019-05-20T09:01:25.495Z,30.29
2019-05-20T09:04:00.530Z,30.65
2019-05-20T09:06:34.415Z,30.92
2019-05-20T09:09:11.956Z,31.45
2019-05-20T09:11:47.722Z,31.75
2019-05-20T09:14:19.982Z,32.13
2019-05-20T09:16:53.858Z,32.50
2019-05-20T09:19:27.702Z,32.28
2019-05-20T09:22:01.556Z,32.57
2019-05-20T09:24:35.438Z,32.92
2019-05-20T09:27:09.464Z,32.81
2019-05-20T09:29:43.469Z,32.37
2019-05-20T09:32:17.752Z,32.71
2019-05-20T09:34:51.913Z,32.36
2019-05-20T09:37:26.177Z,31.97
2019-05-20T09:40:00.209Z,32.19
2019-05-20T09:42:34.081Z,31.77
2019-05-20T09:45:09.032Z,32.25
2019-05-20T09:47:42.917Z,32.20
2019-05-20T09:50:16.766Z,32.06
2019-05-20T09:52:50.761Z,31.79
2019-05-20T09:55:24.789Z,31.86
2019-05-20T09:57:58.768Z,31.54
2019-05-20T10:00:32.804Z,31.24
2019-05-20T10:03:07.638Z,31.08
2019-05-20T10:05:41.909Z,31.15
2019-05-20T10:08:15.860Z,30.79
2019-05-20T10:10:49.999Z,31.20
2019-05-20T10:13:23.943Z,31.44
2019-05-20T10:15:58.151Z,31.72
2019-05-20T10:18:37.213Z,31.80
2019-05-20T10:21:07.644Z,31.66
2019-05-20T10:23:41.607Z,31.79
2019-05-20T10:26:15.881Z,31.40
2019-05-20T10:28:50.008Z,30.94
2019-05-20T10:31:23.873Z,30.46
2019-05-20T10:33:57.701Z,30.37
2019-05-20T10:36:31.533Z,30.45
2019-05-20T10:39:08.411Z,30.73
2019-05-20T10:41:42.762Z,30.23
2019-05-20T10:44:16.681Z,29.43
2019-05-20T10:46:50.458Z,28.81
2019-05-20T10:49:24.390Z,28.36
2019-05-20T10:51:58.298Z,27.88
2019-05-20T10:54:32.154Z,27.63
2019-05-20T10:57:06.148Z,26.92
2019-05-20T10:59:39.928Z,26.92
2019-05-20T11:02:13.227Z,26.88
2019-05-20T11:04:47.150Z,26.72
2019-05-20T11:07:21.090Z,26.45
2019-05-20T11:09:55.016Z,26.18
2019-05-20T11:12:29.020Z,25.88
2019-05-20T11:15:03.214Z,25.64
2019-05-20T11:17:39.017Z,25.61
2019-05-20T11:20:13.225Z,25.60
2019-05-20T11:22:47.125Z,25.49
2019-05-20T11:25:20.204Z,25.48
2019-05-20T11:27:54.088Z,25.26
2019-05-20T11:30:27.384Z,25.28
2019-05-20T11:33:01.472Z,25.30
2019-05-20T11:35:35.514Z,25.11
2019-05-20T11:38:09.451Z,25.02
2019-05-20T11:40:42.730Z,24.99
2019-05-20T11:43:16.785Z,24.91
2019-05-20T11:45:51.176Z,24.80
2019-05-20T11:48:25.335Z,24.89
2019-05-20T11:50:58.380Z,25.04
2019-05-20T11:53:32.440Z,25.04
2019-05-20T11:56:06.300Z,24.90
2019-05-20T11:58:39.403Z,24.78
2019-05-20T12:01:13.211Z,24.69
2019-05-20T12:03:46.540Z,24.64
2019-05-20T12:06:20.354Z,24.71
2019-05-20T12:08:54.489Z,24.95
2019-05-20T12:11:28.618Z,25.13
2019-05-20T12:14:02.656Z,25.23
2019-05-20T12:16:36.568Z,25.17
2019-05-20T12:19:09.723Z,25.27
2019-05-20T12:21:43.861Z,25.37
2019-05-20T12:24:18.077Z,25.26
2019-05-20T12:26:52.022Z,25.19
2019-05-20T12:29:25.292Z,25.13
2019-05-20T12:32:03.322Z,24.97
2019-05-20T12:34:35.353Z,24.79
2019-05-20T12:37:09.586Z,24.59
2019-05-20T12:39:43.670Z,24.37
2019-05-20T12:42:17.890Z,24.35
2019-05-20T12:44:51.753Z,24.24
2019-05-20T12:47:24.815Z,24.25
2019-05-20T12:49:58.904Z,24.22
2019-05-20T12:52:32.858Z,24.15
2019-05-20T12:55:09.141Z,24.32
2019-05-20T12:57:42.633Z,24.38
2019-05-20T13:00:17.569Z,24.39
2019-05-20T13:02:51.494Z,24.45
2019-05-20T13:05:25.427Z,24.44
2019-05-20T13:07:58.460Z,24.46
2019-05-20T13:10:35.767Z,24.45
2019-05-20T13:13:09.692Z,24.35
2019-05-20T13:15:42.968Z,24.37
2019-05-20T13:18:16.986Z,24.34
2019-05-20T13:20:50.828Z,24.17
2019-05-20T13:23:24.689Z,24.12
2019-05-20T13:25:58.744Z,24.07
2019-05-20T13:28:32.705Z,24.02
2019-05-20T13:31:08.921Z,23.98
2019-05-20T13:33:42.814Z,24.04
2019-05-20T13:36:15.879Z,24.02
2019-05-20T13:38:49.784Z,24.04
2019-05-20T13:41:22.993Z,24.02
2019-05-20T13:43:57.029Z,23.97
2019-05-20T13:46:30.147Z,23.90
2019-05-20T13:49:04.102Z,23.91
2019-05-20T13:51:38.739Z,23.92
2019-05-20T13:54:14.074Z,23.88
2019-05-20T13:56:48.231Z,23.85
2019-05-20T13:59:22.603Z,23.85
2019-05-20T14:05:19.747Z,23.89
2019-05-20T14:07:54.809Z,23.92
2019-05-20T14:10:30.443Z,23.99
2019-05-20T14:13:05.761Z,24.00
2019-05-20T14:15:41.042Z,23.99
2019-05-20T14:18:15.015Z,23.94
2019-05-20T14:20:48.302Z,23.87
2019-05-20T14:23:23.389Z,23.85
2019-05-20T14:25:59.068Z,23.78
2019-05-20T14:28:34.060Z,23.74
2019-05-20T14:31:08.465Z,23.67
2019-05-20T14:33:42.737Z,23.57
2019-05-20T14:36:37.795Z,23.53
2019-05-20T14:38:52.679Z,23.44
2019-05-20T14:41:27.018Z,23.33
2019-05-20T14:44:00.993Z,23.21
2019-05-20T14:46:34.221Z,23.16
2019-05-20T14:49:07.992Z,23.06
2019-05-20T14:51:41.874Z,22.98
2019-05-20T14:54:16.477Z,22.96
2019-05-20T14:56:50.254Z,22.93
2019-05-20T14:59:24.374Z,22.86
2019-05-20T15:01:58.369Z,22.83
2019-05-20T15:04:32.367Z,22.83
2019-05-20T15:07:06.261Z,22.87
2019-05-20T15:09:39.456Z,22.85
2019-05-20T15:12:14.126Z,22.85
2019-05-20T15:14:48.210Z,22.87
2019-05-20T15:17:21.486Z,22.92
2019-05-20T15:19:55.572Z,22.92
2019-05-20T15:22:29.648Z,22.86
2019-05-20T15:25:03.975Z,22.86
2019-05-20T15:27:37.782Z,22.85
2019-05-20T15:30:12.063Z,22.85
2019-05-20T15:32:45.963Z,22.84
2019-05-20T15:35:20.354Z,22.87
2019-05-20T15:37:54.294Z,22.91
2019-05-20T15:40:29.332Z,22.90
2019-05-20T15:43:03.481Z,22.92
2019-05-20T15:45:37.443Z,22.88
2019-05-20T15:48:10.497Z,22.86
2019-05-20T15:50:44.939Z,22.86
2019-05-20T15:53:24.594Z,22.78
2019-05-20T15:56:02.728Z,22.72
2019-05-20T15:58:39.718Z,22.60
2019-05-20T16:01:15.168Z,22.31
2019-05-20T16:03:51.451Z,22.01
2019-05-20T16:06:24.873Z,21.64
2019-05-20T16:08:58.119Z,21.27
2019-05-20T16:11:32.331Z,21.01
2019-05-20T16:14:06.364Z,20.87
2019-05-20T16:16:39.716Z,20.79
2019-05-20T16:19:13.710Z,20.70
2019-05-20T16:21:47.861Z,20.64
2019-05-20T16:24:22.156Z,20.62
2019-05-20T16:26:56.134Z,20.63
2019-05-20T16:29:29.182Z,20.57
2019-05-20T16:32:03.345Z,20.50
2019-05-20T16:34:37.278Z,20.40
2019-05-20T16:37:11.444Z,20.32
2019-05-20T16:39:45.308Z,20.26
2019-05-20T16:42:19.179Z,20.19
2019-05-20T16:44:53.078Z,20.15
2019-05-20T16:47:27.216Z,20.20
2019-05-20T16:50:01.058Z,20.25
2019-05-20T16:52:35.166Z,20.28
2019-05-20T16:55:10.011Z,20.29
2019-05-20T16:57:44.028Z,20.32
2019-05-20T17:00:30.604Z,20.30
2019-05-20T17:02:53.048Z,20.31
2019-05-20T17:05:27.311Z,20.28
2019-05-20T17:08:01.886Z,20.29
2019-05-20T17:10:35.986Z,20.31
2019-05-20T17:13:09.809Z,20.27
2019-05-20T17:15:43.636Z,20.12
2019-05-20T17:18:18.013Z,20.08
2019-05-20T17:20:51.948Z,20.13
2019-05-20T17:23:26.031Z,20.19
2019-05-20T17:26:00.168Z,20.28
2019-05-20T17:28:34.024Z,20.32
2019-05-20T17:31:08.025Z,20.32
2019-05-20T17:33:41.209Z,20.29
2019-05-20T17:36:15.136Z,20.19
2019-05-20T17:38:49.577Z,20.16
2019-05-20T17:41:23.666Z,20.15
2019-05-20T17:43:56.799Z,20.02
2019-05-20T17:46:30.775Z,19.96
2019-05-20T17:49:03.946Z,19.97
2019-05-20T17:51:38.320Z,19.99
2019-05-20T17:54:13.798Z,19.94
2019-05-20T17:56:47.820Z,19.97
2019-05-20T17:59:22.157Z,19.96
2019-05-20T18:01:56.074Z,19.99
2019-05-20T18:04:29.984Z,20.03
2019-05-20T18:07:03.992Z,20.04
2019-05-20T18:09:38.728Z,20.06
2019-05-20T18:12:12.643Z,20.06
2019-05-20T18:14:48.355Z,20.02
2019-05-20T18:17:22.419Z,20.01
2019-05-20T18:19:55.485Z,19.97
2019-05-20T18:22:29.542Z,19.97
2019-05-20T18:25:03.969Z,19.89
2019-05-20T18:27:38.641Z,19.86
2019-05-20T18:30:13.511Z,19.82
2019-05-20T18:32:47.576Z,19.78
2019-05-20T18:35:20.847Z,19.73
2019-05-20T18:37:59.667Z,19.68
2019-05-20T18:40:40.172Z,19.63
2019-05-20T18:43:14.911Z,19.62
2019-05-20T18:45:48.810Z,19.62
2019-05-20T18:48:22.832Z,19.58
2019-05-20T18:50:55.974Z,19.53
2019-05-20T18:53:29.846Z,19.50
2019-05-20T18:56:03.981Z,19.40
2019-05-20T18:58:37.122Z,19.33
2019-05-20T19:01:11.310Z,19.28
2019-05-20T19:03:45.405Z,19.17
2019-05-20T19:06:18.511Z,19.14
2019-05-20T19:08:52.828Z,19.11
2019-05-20T19:11:26.912Z,19.07
2019-05-20T19:14:00.216Z,19.05
2019-05-20T19:16:34.449Z,19.05
2019-05-20T19:19:08.578Z,18.99
2019-05-20T19:21:42.567Z,18.94
2019-05-20T19:24:16.694Z,18.93
2019-05-20T19:26:49.710Z,18.90
2019-05-20T19:29:23.705Z,18.84
2019-05-20T19:32:01.783Z,18.67
2019-05-20T19:34:31.778Z,18.54
2019-05-20T19:37:05.742Z,18.44
2019-05-20T19:39:39.584Z,18.27
2019-05-20T19:42:13.580Z,17.72
2019-05-20T19:44:47.408Z,17.04
2019-05-20T19:47:21.459Z,16.63
2019-05-20T19:49:54.711Z,16.62
2019-05-20T19:52:28.547Z,16.55
2019-05-20T19:55:02.477Z,16.41
2019-05-20T19:57:36.398Z,16.34
2019-05-20T20:00:10.774Z,16.35
2019-05-20T20:02:44.598Z,16.46
2019-05-20T20:05:18.730Z,16.56
2019-05-20T20:07:51.781Z,16.63
2019-05-20T20:10:25.703Z,16.69
2019-05-20T20:13:00.320Z,16.72
2019-05-20T20:15:34.283Z,16.77
2019-05-20T20:18:08.226Z,16.80
2019-05-20T20:20:42.300Z,16.80
2019-05-20T20:23:16.293Z,16.80
2019-05-20T20:25:50.297Z,16.77
2019-05-20T20:28:25.818Z,16.77
2019-05-20T20:30:59.334Z,16.77
2019-05-20T20:33:33.491Z,16.72
2019-05-20T20:36:06.739Z,16.70
2019-05-20T20:38:40.656Z,16.71
2019-05-20T20:41:14.575Z,16.68
2019-05-20T20:43:48.429Z,16.66
2019-05-20T20:46:22.506Z,16.64
2019-05-20T20:48:56.538Z,16.60
2019-05-20T20:51:30.487Z,16.58
2019-05-20T20:54:04.593Z,16.56
2019-05-20T20:56:37.576Z,16.55
2019-05-20T20:59:11.686Z,16.50
2019-05-20T21:01:45.666Z,16.44
2019-05-20T21:04:19.638Z,16.43
2019-05-20T21:06:53.474Z,16.47
2019-05-20T21:09:27.508Z,16.48
2019-05-20T21:12:00.736Z,16.55
2019-05-20T21:14:34.724Z,16.57
2019-05-20T21:17:08.673Z,16.57
2019-05-20T21:19:42.878Z,16.58
2019-05-20T21:22:16.907Z,16.51
2019-05-20T21:24:50.008Z,16.49
2019-05-20T21:27:23.808Z,16.52
2019-05-20T21:29:57.899Z,16.51
2019-05-20T21:32:31.019Z,16.55
2019-05-20T21:35:05.457Z,16.57
2019-05-20T21:37:39.561Z,16.58
2019-05-20T21:40:13.621Z,16.61
2019-05-20T21:42:46.806Z,16.63
2019-05-20T21:45:20.657Z,16.64
2019-05-20T21:47:54.593Z,16.64
2019-05-20T21:50:28.583Z,16.66
2019-05-20T21:53:01.986Z,16.65
2019-05-20T21:55:36.014Z,16.64
2019-05-20T21:58:09.977Z,16.64
2019-05-20T22:00:51.318Z,16.65
2019-05-20T22:03:25.572Z,16.64
2019-05-20T22:05:59.744Z,16.64
2019-05-20T22:08:32.823Z,16.63
2019-05-20T22:11:06.839Z,16.62
2019-05-20T22:13:40.786Z,16.59
2019-05-20T22:16:15.059Z,16.55
2019-05-20T22:18:49.195Z,16.50
2019-05-20T22:21:30.769Z,16.50
2019-05-20T22:24:08.925Z,16.52
2019-05-20T22:26:43.176Z,16.53
2019-05-20T22:29:17.649Z,16.54
2019-05-20T22:31:51.589Z,16.54
2019-05-20T22:34:25.542Z,16.53
2019-05-20T22:36:59.793Z,16.49
2019-05-20T22:39:34.036Z,16.49
2019-05-20T22:42:08.121Z,16.50
2019-05-20T22:44:41.506Z,16.51
2019-05-20T22:47:15.351Z,16.49
2019-05-20T22:49:49.198Z,16.42
2019-05-20T22:52:23.127Z,16.34
2019-05-20T22:54:57.046Z,16.29
2019-05-20T22:57:30.879Z,16.27
2019-05-20T23:00:06.291Z,16.28
2019-05-20T23:02:40.118Z,16.29
2019-05-20T23:05:14.308Z,16.30
2019-05-20T23:07:48.598Z,16.33
2019-05-20T23:10:22.879Z,16.36
2019-05-20T23:12:57.133Z,16.35
2019-05-20T23:15:31.039Z,16.33
2019-05-20T23:18:05.176Z,16.34
2019-05-20T23:20:39.153Z,16.36
2019-05-20T23:23:13.038Z,16.38
2019-05-20T23:25:47.123Z,16.39
2019-05-20T23:28:20.193Z,16.41
2019-05-20T23:30:54.451Z,16.43
2019-05-20T23:33:28.306Z,16.41
2019-05-20T23:36:02.167Z,16.44
2019-05-20T23:38:36.006Z,16.43
2019-05-20T23:41:09.809Z,16.44
2019-05-20T23:43:43.685Z,16.43
2019-05-20T23:46:17.675Z,16.43
2019-05-20T23:48:51.641Z,16.47
2019-05-20T23:51:24.728Z,16.48
2019-05-20T23:53:58.559Z,16.47
2019-05-20T23:56:32.438Z,16.48
2019-05-20T23:59:06.436Z,16.48
